Foosland, Illinois
Current Conditions -  °F | °C
As of 2:30 PM on Thursday 20 Nov 2014 (Local Time) from KTIP Reporting Station
Scattered Clouds Scattered Clouds  
Wind Chill: 23°   Ceiling: Unl
Heat Index: 34°   Visibility: 10mi
Dew Point: 11°   Wind: 17mph
Humidity: 39%   Direction: 280°W
Pressure: 30.13"   Gusts: 24mph
Location:  40.36°N, 88.43°W
Report Text: KTIP 202030Z AUTO 28015G21KT 10SM SCT047 01/M11 A3013 RMK AO2 T00101115
Loading
Personal Weather Stations






























Interactive Weather Map New forecast layout! Learn more

10-Day Weather Forecast

Advertisements
Track Severe Weather on mobile